sensor_id;sensor_type;location;lat;lon;timestamp;P1;durP1;ratioP1;P2;durP2;ratioP2
8187;SDS011;4135;49.184;9.722;2022-10-04T00:09:45;1.27;;;0.65;;
8187;SDS011;4135;49.184;9.722;2022-10-04T00:14:57;3.40;;;0.98;;
8187;SDS011;4135;49.184;9.722;2022-10-04T00:17:30;1.65;;;0.60;;
8187;SDS011;4135;49.184;9.722;2022-10-04T00:20:03;0.65;;;0.50;;
8187;SDS011;4135;49.184;9.722;2022-10-04T00:25:58;5.65;;;1.17;;
8187;SDS011;4135;49.184;9.722;2022-10-04T00:28:51;2.08;;;0.77;;
8187;SDS011;4135;49.184;9.722;2022-10-04T00:31:26;1.52;;;0.82;;
8187;SDS011;4135;49.184;9.722;2022-10-04T00:36:37;2.22;;;0.77;;
8187;SDS011;4135;49.184;9.722;2022-10-04T00:46:50;0.70;;;0.70;;
8187;SDS011;4135;49.184;9.722;2022-10-04T00:49:22;1.02;;;0.52;;
8187;SDS011;4135;49.184;9.722;2022-10-04T00:52:00;1.15;;;0.77;;
8187;SDS011;4135;49.184;9.722;2022-10-04T00:54:46;0.70;;;0.60;;
8187;SDS011;4135;49.184;9.722;2022-10-04T00:57:20;1.27;;;0.73;;
8187;SDS011;4135;49.184;9.722;2022-10-04T01:00:00;1.45;;;0.52;;
8187;SDS011;4135;49.184;9.722;2022-10-04T01:05:13;1.73;;;0.75;;
8187;SDS011;4135;49.184;9.722;2022-10-04T01:07:51;1.10;;;0.43;;
8187;SDS011;4135;49.184;9.722;2022-10-04T01:10:26;1.48;;;0.60;;
8187;SDS011;4135;49.184;9.722;2022-10-04T01:15:38;0.55;;;0.30;;
8187;SDS011;4135;49.184;9.722;2022-10-04T01:20:59;1.15;;;0.50;;
8187;SDS011;4135;49.184;9.722;2022-10-04T01:23:48;0.40;;;0.40;;
8187;SDS011;4135;49.184;9.722;2022-10-04T01:29:16;1.30;;;0.40;;
8187;SDS011;4135;49.184;9.722;2022-10-04T01:31:52;0.52;;;0.40;;
8187;SDS011;4135;49.184;9.722;2022-10-04T01:34:28;1.00;;;0.45;;
8187;SDS011;4135;49.184;9.722;2022-10-04T01:36:58;0.95;;;0.70;;
8187;SDS011;4135;49.184;9.722;2022-10-04T01:39:28;0.60;;;0.50;;
8187;SDS011;4135;49.184;9.722;2022-10-04T01:45:10;1.30;;;0.30;;
8187;SDS011;4135;49.184;9.722;2022-10-04T01:50:08;4.10;;;0.52;;
8187;SDS011;4135;49.184;9.722;2022-10-04T01:52:43;0.65;;;0.30;;
8187;SDS011;4135;49.184;9.722;2022-10-04T01:55:19;0.93;;;0.30;;
8187;SDS011;4135;49.184;9.722;2022-10-04T02:01:00;2.13;;;0.30;;
8187;SDS011;4135;49.184;9.722;2022-10-04T02:03:37;0.30;;;0.28;;
8187;SDS011;4135;49.184;9.722;2022-10-04T02:06:34;0.52;;;0.40;;
8187;SDS011;4135;49.184;9.722;2022-10-04T02:09:17;0.63;;;0.40;;
8187;SDS011;4135;49.184;9.722;2022-10-04T02:11:50;1.13;;;0.20;;
8187;SDS011;4135;49.184;9.722;2022-10-04T02:14:23;0.57;;;0.20;;
8187;SDS011;4135;49.184;9.722;2022-10-04T02:16:55;0.70;;;0.30;;
8187;SDS011;4135;49.184;9.722;2022-10-04T02:19:30;0.50;;;0.38;;
8187;SDS011;4135;49.184;9.722;2022-10-04T02:22:03;0.30;;;0.22;;
8187;SDS011;4135;49.184;9.722;2022-10-04T02:24:37;0.45;;;0.20;;
8187;SDS011;4135;49.184;9.722;2022-10-04T02:27:10;1.55;;;0.15;;
8187;SDS011;4135;49.184;9.722;2022-10-04T02:29:40;0.47;;;0.20;;
8187;SDS011;4135;49.184;9.722;2022-10-04T02:32:10;0.88;;;0.40;;
8187;SDS011;4135;49.184;9.722;2022-10-04T02:35:00;2.90;;;0.35;;
8187;SDS011;4135;49.184;9.722;2022-10-04T02:37:32;0.50;;;0.30;;
8187;SDS011;4135;49.184;9.722;2022-10-04T02:40:03;0.17;;;0.15;;
8187;SDS011;4135;49.184;9.722;2022-10-04T02:43:02;0.38;;;0.30;;
8187;SDS011;4135;49.184;9.722;2022-10-04T02:50:49;1.35;;;0.65;;
8187;SDS011;4135;49.184;9.722;2022-10-04T02:53:32;1.15;;;0.25;;
8187;SDS011;4135;49.184;9.722;2022-10-04T02:56:18;0.55;;;0.22;;
8187;SDS011;4135;49.184;9.722;2022-10-04T02:58:50;0.22;;;0.20;;
8187;SDS011;4135;49.184;9.722;2022-10-04T03:01:25;0.73;;;0.22;;
8187;SDS011;4135;49.184;9.722;2022-10-04T03:03:56;2.65;;;0.35;;
8187;SDS011;4135;49.184;9.722;2022-10-04T03:06:27;0.65;;;0.25;;
8187;SDS011;4135;49.184;9.722;2022-10-04T03:09:01;0.43;;;0.30;;
8187;SDS011;4135;49.184;9.722;2022-10-04T03:11:33;0.63;;;0.20;;
8187;SDS011;4135;49.184;9.722;2022-10-04T03:14:11;0.32;;;0.20;;
8187;SDS011;4135;49.184;9.722;2022-10-04T03:16:44;1.20;;;0.25;;
8187;SDS011;4135;49.184;9.722;2022-10-04T03:19:15;0.77;;;0.20;;
8187;SDS011;4135;49.184;9.722;2022-10-04T03:21:48;1.30;;;0.28;;
8187;SDS011;4135;49.184;9.722;2022-10-04T03:24:20;0.13;;;0.13;;
8187;SDS011;4135;49.184;9.722;2022-10-04T03:26:56;0.60;;;0.30;;
8187;SDS011;4135;49.184;9.722;2022-10-04T03:29:28;0.65;;;0.30;;
8187;SDS011;4135;49.184;9.722;2022-10-04T03:32:00;2.08;;;0.30;;
8187;SDS011;4135;49.184;9.722;2022-10-04T03:34:34;0.32;;;0.28;;
8187;SDS011;4135;49.184;9.722;2022-10-04T03:37:13;0.90;;;0.22;;
8187;SDS011;4135;49.184;9.722;2022-10-04T03:39:46;0.43;;;0.30;;
8187;SDS011;4135;49.184;9.722;2022-10-04T03:42:19;0.32;;;0.17;;
8187;SDS011;4135;49.184;9.722;2022-10-04T03:44:49;0.50;;;0.30;;
8187;SDS011;4135;49.184;9.722;2022-10-04T03:49:57;0.45;;;0.20;;
8187;SDS011;4135;49.184;9.722;2022-10-04T03:52:31;0.30;;;0.20;;
8187;SDS011;4135;49.184;9.722;2022-10-04T03:55:04;0.40;;;0.22;;
8187;SDS011;4135;49.184;9.722;2022-10-04T03:57:35;0.35;;;0.20;;
8187;SDS011;4135;49.184;9.722;2022-10-04T04:00:06;0.55;;;0.32;;
8187;SDS011;4135;49.184;9.722;2022-10-04T04:02:44;0.52;;;0.20;;
8187;SDS011;4135;49.184;9.722;2022-10-04T04:05:27;1.65;;;0.30;;
8187;SDS011;4135;49.184;9.722;2022-10-04T04:10:45;0.80;;;0.38;;
8187;SDS011;4135;49.184;9.722;2022-10-04T04:16:22;0.40;;;0.15;;
8187;SDS011;4135;49.184;9.722;2022-10-04T04:18:54;0.45;;;0.30;;
8187;SDS011;4135;49.184;9.722;2022-10-04T04:21:31;0.30;;;0.30;;
8187;SDS011;4135;49.184;9.722;2022-10-04T04:24:02;1.05;;;0.32;;
8187;SDS011;4135;49.184;9.722;2022-10-04T04:31:57;0.52;;;0.38;;
8187;SDS011;4135;49.184;9.722;2022-10-04T04:34:52;1.00;;;0.43;;
8187;SDS011;4135;49.184;9.722;2022-10-04T04:37:26;0.25;;;0.20;;
8187;SDS011;4135;49.184;9.722;2022-10-04T04:39:55;0.75;;;0.40;;
8187;SDS011;4135;49.184;9.722;2022-10-04T04:42:38;0.82;;;0.32;;
8187;SDS011;4135;49.184;9.722;2022-10-04T04:45:18;0.80;;;0.35;;
8187;SDS011;4135;49.184;9.722;2022-10-04T04:47:51;0.10;;;0.10;;
8187;SDS011;4135;49.184;9.722;2022-10-04T04:50:36;0.43;;;0.30;;
8187;SDS011;4135;49.184;9.722;2022-10-04T04:55:43;0.63;;;0.30;;
8187;SDS011;4135;49.184;9.722;2022-10-04T04:58:17;0.32;;;0.20;;
8187;SDS011;4135;49.184;9.722;2022-10-04T05:01:04;0.95;;;0.63;;
8187;SDS011;4135;49.184;9.722;2022-10-04T05:03:41;0.30;;;0.20;;
8187;SDS011;4135;49.184;9.722;2022-10-04T05:06:24;1.38;;;0.40;;
8187;SDS011;4135;49.184;9.722;2022-10-04T05:08:55;0.52;;;0.28;;
8187;SDS011;4135;49.184;9.722;2022-10-04T05:11:25;0.77;;;0.40;;
8187;SDS011;4135;49.184;9.722;2022-10-04T05:14:05;1.48;;;0.70;;
8187;SDS011;4135;49.184;9.722;2022-10-04T05:16:42;0.98;;;0.60;;
8187;SDS011;4135;49.184;9.722;2022-10-04T05:19:31;4.90;;;1.85;;
8187;SDS011;4135;49.184;9.722;2022-10-04T05:22:08;3.40;;;1.45;;
8187;SDS011;4135;49.184;9.722;2022-10-04T05:24:41;2.83;;;1.27;;
8187;SDS011;4135;49.184;9.722;2022-10-04T05:29:56;2.75;;;1.17;;
8187;SDS011;4135;49.184;9.722;2022-10-04T05:44:30;3.75;;;1.08;;
8187;SDS011;4135;49.184;9.722;2022-10-04T05:47:05;2.63;;;0.98;;
8187;SDS011;4135;49.184;9.722;2022-10-04T05:49:39;2.10;;;1.13;;
8187;SDS011;4135;49.184;9.722;2022-10-04T06:00:38;3.97;;;1.35;;
8187;SDS011;4135;49.184;9.722;2022-10-04T06:06:20;3.40;;;1.35;;
8187;SDS011;4135;49.184;9.722;2022-10-04T06:23:15;4.38;;;1.77;;
8187;SDS011;4135;49.184;9.722;2022-10-04T06:25:47;4.00;;;1.80;;
8187;SDS011;4135;49.184;9.722;2022-10-04T06:28:27;3.95;;;2.00;;
8187;SDS011;4135;49.184;9.722;2022-10-04T06:31:19;3.50;;;2.00;;
8187;SDS011;4135;49.184;9.722;2022-10-04T06:36:56;3.83;;;1.85;;
8187;SDS011;4135;49.184;9.722;2022-10-04T06:39:51;5.35;;;2.15;;
8187;SDS011;4135;49.184;9.722;2022-10-04T06:48:18;3.88;;;1.48;;
8187;SDS011;4135;49.184;9.722;2022-10-04T06:51:14;1.90;;;1.10;;
8187;SDS011;4135;49.184;9.722;2022-10-04T07:02:39;1.45;;;1.00;;
8187;SDS011;4135;49.184;9.722;2022-10-04T07:07:45;2.58;;;0.98;;
8187;SDS011;4135;49.184;9.722;2022-10-04T07:13:18;5.95;;;1.52;;
8187;SDS011;4135;49.184;9.722;2022-10-04T07:16:08;2.47;;;1.40;;
8187;SDS011;4135;49.184;9.722;2022-10-04T07:24:25;7.90;;;2.67;;
8187;SDS011;4135;49.184;9.722;2022-10-04T07:27:01;8.88;;;2.47;;
8187;SDS011;4135;49.184;9.722;2022-10-04T07:29:36;7.53;;;2.88;;
8187;SDS011;4135;49.184;9.722;2022-10-04T07:32:19;6.03;;;2.38;;
8187;SDS011;4135;49.184;9.722;2022-10-04T07:34:59;5.07;;;1.85;;
8187;SDS011;4135;49.184;9.722;2022-10-04T07:37:33;2.75;;;1.27;;
8187;SDS011;4135;49.184;9.722;2022-10-04T07:40:23;4.80;;;1.92;;
8187;SDS011;4135;49.184;9.722;2022-10-04T07:43:03;3.75;;;1.08;;
8187;SDS011;4135;49.184;9.722;2022-10-04T07:45:37;8.48;;;1.73;;
8187;SDS011;4135;49.184;9.722;2022-10-04T07:48:11;3.63;;;1.42;;
8187;SDS011;4135;49.184;9.722;2022-10-04T07:50:46;4.05;;;1.50;;
8187;SDS011;4135;49.184;9.722;2022-10-04T07:53:37;2.17;;;1.20;;
8187;SDS011;4135;49.184;9.722;2022-10-04T07:56:18;2.42;;;1.30;;
8187;SDS011;4135;49.184;9.722;2022-10-04T07:59:05;2.17;;;1.30;;
8187;SDS011;4135;49.184;9.722;2022-10-04T08:04:35;2.88;;;1.27;;
8187;SDS011;4135;49.184;9.722;2022-10-04T08:07:17;2.65;;;1.23;;
8187;SDS011;4135;49.184;9.722;2022-10-04T08:13:02;2.95;;;1.35;;
8187;SDS011;4135;49.184;9.722;2022-10-04T08:15:44;4.57;;;0.98;;
8187;SDS011;4135;49.184;9.722;2022-10-04T08:18:18;1.88;;;1.10;;
8187;SDS011;4135;49.184;9.722;2022-10-04T08:20:59;6.85;;;1.15;;
8187;SDS011;4135;49.184;9.722;2022-10-04T08:23:43;5.05;;;1.42;;
8187;SDS011;4135;49.184;9.722;2022-10-04T08:32:26;3.72;;;1.08;;
8187;SDS011;4135;49.184;9.722;2022-10-04T08:35:03;2.30;;;1.20;;
8187;SDS011;4135;49.184;9.722;2022-10-04T08:43:55;3.92;;;1.30;;
8187;SDS011;4135;49.184;9.722;2022-10-04T08:50:19;0.98;;;0.73;;
8187;SDS011;4135;49.184;9.722;2022-10-04T08:53:12;2.22;;;1.17;;
8187;SDS011;4135;49.184;9.722;2022-10-04T09:02:12;1.77;;;0.90;;
8187;SDS011;4135;49.184;9.722;2022-10-04T09:07:50;3.03;;;1.05;;
8187;SDS011;4135;49.184;9.722;2022-10-04T09:10:36;2.05;;;1.17;;
8187;SDS011;4135;49.184;9.722;2022-10-04T09:15:54;3.22;;;0.90;;
8187;SDS011;4135;49.184;9.722;2022-10-04T09:18:44;2.85;;;0.85;;
8187;SDS011;4135;49.184;9.722;2022-10-04T09:38:30;1.00;;;0.75;;
8187;SDS011;4135;49.184;9.722;2022-10-04T09:41:04;1.20;;;0.50;;
8187;SDS011;4135;49.184;9.722;2022-10-04T09:46:48;2.08;;;0.75;;
8187;SDS011;4135;49.184;9.722;2022-10-04T09:58:08;1.10;;;0.80;;
8187;SDS011;4135;49.184;9.722;2022-10-04T10:00:58;4.22;;;0.82;;
8187;SDS011;4135;49.184;9.722;2022-10-04T10:12:52;1.77;;;0.68;;
8187;SDS011;4135;49.184;9.722;2022-10-04T10:19:05;2.15;;;1.25;;
8187;SDS011;4135;49.184;9.722;2022-10-04T10:22:06;1.40;;;0.85;;
8187;SDS011;4135;49.184;9.722;2022-10-04T10:25:01;1.35;;;0.73;;
8187;SDS011;4135;49.184;9.722;2022-10-04T10:28:11;2.03;;;0.85;;
8187;SDS011;4135;49.184;9.722;2022-10-04T10:45:18;0.93;;;0.55;;
8187;SDS011;4135;49.184;9.722;2022-10-04T10:48:04;1.27;;;0.52;;
8187;SDS011;4135;49.184;9.722;2022-10-04T11:05:22;1.52;;;0.60;;
8187;SDS011;4135;49.184;9.722;2022-10-04T11:08:24;1.80;;;0.60;;
8187;SDS011;4135;49.184;9.722;2022-10-04T11:19:47;1.65;;;0.60;;
8187;SDS011;4135;49.184;9.722;2022-10-04T11:25:28;1.60;;;0.82;;
8187;SDS011;4135;49.184;9.722;2022-10-04T11:28:22;1.13;;;0.60;;
8187;SDS011;4135;49.184;9.722;2022-10-04T11:31:31;1.23;;;0.57;;
8187;SDS011;4135;49.184;9.722;2022-10-04T11:34:23;2.42;;;0.70;;
8187;SDS011;4135;49.184;9.722;2022-10-04T11:57:29;1.13;;;0.70;;
8187;SDS011;4135;49.184;9.722;2022-10-04T12:00:20;1.92;;;0.60;;
8187;SDS011;4135;49.184;9.722;2022-10-04T12:02:57;1.40;;;0.57;;
8187;SDS011;4135;49.184;9.722;2022-10-04T12:05:43;1.30;;;0.75;;
8187;SDS011;4135;49.184;9.722;2022-10-04T12:11:02;1.63;;;0.65;;
8187;SDS011;4135;49.184;9.722;2022-10-04T12:19:50;0.65;;;0.35;;
8187;SDS011;4135;49.184;9.722;2022-10-04T12:31:44;0.70;;;0.50;;
8187;SDS011;4135;49.184;9.722;2022-10-04T12:42:46;1.27;;;0.50;;
8187;SDS011;4135;49.184;9.722;2022-10-04T12:48:46;1.25;;;0.32;;
8187;SDS011;4135;49.184;9.722;2022-10-04T12:51:32;1.60;;;0.40;;
8187;SDS011;4135;49.184;9.722;2022-10-04T13:05:51;1.02;;;0.80;;
8187;SDS011;4135;49.184;9.722;2022-10-04T13:08:39;0.70;;;0.40;;
8187;SDS011;4135;49.184;9.722;2022-10-04T13:11:20;0.90;;;0.65;;
8187;SDS011;4135;49.184;9.722;2022-10-04T13:17:04;0.60;;;0.45;;
8187;SDS011;4135;49.184;9.722;2022-10-04T13:19:52;0.93;;;0.30;;
8187;SDS011;4135;49.184;9.722;2022-10-04T13:22:35;1.27;;;0.50;;
8187;SDS011;4135;49.184;9.722;2022-10-04T13:31:23;1.65;;;0.63;;
8187;SDS011;4135;49.184;9.722;2022-10-04T13:48:04;0.98;;;0.65;;
8187;SDS011;4135;49.184;9.722;2022-10-04T13:59:40;0.93;;;0.50;;
8187;SDS011;4135;49.184;9.722;2022-10-04T14:02:30;0.75;;;0.52;;
8187;SDS011;4135;49.184;9.722;2022-10-04T14:05:40;1.05;;;0.52;;
8187;SDS011;4135;49.184;9.722;2022-10-04T14:08:35;1.02;;;0.50;;
8187;SDS011;4135;49.184;9.722;2022-10-04T14:19:59;0.70;;;0.55;;
8187;SDS011;4135;49.184;9.722;2022-10-04T14:25:32;1.35;;;0.45;;
8187;SDS011;4135;49.184;9.722;2022-10-04T14:37:25;0.73;;;0.52;;
8187;SDS011;4135;49.184;9.722;2022-10-04T14:40:26;1.75;;;0.70;;
8187;SDS011;4135;49.184;9.722;2022-10-04T14:46:10;2.00;;;0.60;;
8187;SDS011;4135;49.184;9.722;2022-10-04T14:51:34;2.13;;;0.95;;
8187;SDS011;4135;49.184;9.722;2022-10-04T14:57:03;1.30;;;0.52;;
8187;SDS011;4135;49.184;9.722;2022-10-04T15:05:54;1.98;;;0.63;;
8187;SDS011;4135;49.184;9.722;2022-10-04T15:10:53;6.90;;;0.65;;
8187;SDS011;4135;49.184;9.722;2022-10-04T15:22:03;5.70;;;1.00;;
8187;SDS011;4135;49.184;9.722;2022-10-04T15:24:49;1.52;;;1.00;;
8187;SDS011;4135;49.184;9.722;2022-10-04T15:30:07;1.55;;;0.70;;
8187;SDS011;4135;49.184;9.722;2022-10-04T15:42:32;1.30;;;0.82;;
8187;SDS011;4135;49.184;9.722;2022-10-04T15:53:38;3.70;;;1.08;;
8187;SDS011;4135;49.184;9.722;2022-10-04T15:59:14;2.75;;;1.40;;
8187;SDS011;4135;49.184;9.722;2022-10-04T16:02:14;2.60;;;1.35;;
8187;SDS011;4135;49.184;9.722;2022-10-04T16:13:30;3.03;;;1.20;;
8187;SDS011;4135;49.184;9.722;2022-10-04T16:22:16;8.18;;;2.05;;
8187;SDS011;4135;49.184;9.722;2022-10-04T16:30:24;4.53;;;1.38;;
8187;SDS011;4135;49.184;9.722;2022-10-04T16:33:09;6.60;;;1.92;;
8187;SDS011;4135;49.184;9.722;2022-10-04T16:35:41;7.70;;;1.50;;
8187;SDS011;4135;49.184;9.722;2022-10-04T16:38:36;5.18;;;1.45;;
8187;SDS011;4135;49.184;9.722;2022-10-04T16:41:40;2.10;;;1.48;;
8187;SDS011;4135;49.184;9.722;2022-10-04T16:44:33;8.93;;;1.88;;
8187;SDS011;4135;49.184;9.722;2022-10-04T16:49:54;6.93;;;2.33;;
8187;SDS011;4135;49.184;9.722;2022-10-04T16:52:27;6.35;;;2.88;;
8187;SDS011;4135;49.184;9.722;2022-10-04T17:09:29;7.55;;;2.40;;
8187;SDS011;4135;49.184;9.722;2022-10-04T17:18:10;2.00;;;1.63;;
8187;SDS011;4135;49.184;9.722;2022-10-04T17:20:52;7.32;;;3.38;;
8187;SDS011;4135;49.184;9.722;2022-10-04T17:23:36;8.60;;;3.38;;
8187;SDS011;4135;49.184;9.722;2022-10-04T17:38:08;5.68;;;2.88;;
8187;SDS011;4135;49.184;9.722;2022-10-04T17:49:10;5.35;;;2.85;;
8187;SDS011;4135;49.184;9.722;2022-10-04T17:52:16;6.28;;;2.92;;
8187;SDS011;4135;49.184;9.722;2022-10-04T17:55:17;4.97;;;2.78;;
8187;SDS011;4135;49.184;9.722;2022-10-04T17:58:10;6.03;;;2.35;;
8187;SDS011;4135;49.184;9.722;2022-10-04T18:00:54;3.45;;;2.42;;
8187;SDS011;4135;49.184;9.722;2022-10-04T18:03:40;7.78;;;3.28;;
8187;SDS011;4135;49.184;9.722;2022-10-04T18:06:22;7.55;;;3.03;;
8187;SDS011;4135;49.184;9.722;2022-10-04T18:08:55;5.78;;;2.80;;
8187;SDS011;4135;49.184;9.722;2022-10-04T18:11:33;6.38;;;3.30;;
8187;SDS011;4135;49.184;9.722;2022-10-04T18:17:04;4.43;;;2.30;;
8187;SDS011;4135;49.184;9.722;2022-10-04T18:22:13;5.82;;;3.92;;
8187;SDS011;4135;49.184;9.722;2022-10-04T18:24:54;3.58;;;2.80;;
8187;SDS011;4135;49.184;9.722;2022-10-04T18:28:02;7.15;;;2.83;;
8187;SDS011;4135;49.184;9.722;2022-10-04T18:36:19;11.18;;;3.30;;
8187;SDS011;4135;49.184;9.722;2022-10-04T18:39:15;4.78;;;2.47;;
8187;SDS011;4135;49.184;9.722;2022-10-04T18:42:00;4.63;;;2.63;;
8187;SDS011;4135;49.184;9.722;2022-10-04T18:44:55;5.75;;;2.47;;
8187;SDS011;4135;49.184;9.722;2022-10-04T18:47:37;6.32;;;3.08;;
8187;SDS011;4135;49.184;9.722;2022-10-04T18:50:16;4.57;;;2.53;;
8187;SDS011;4135;49.184;9.722;2022-10-04T18:55:29;4.63;;;2.30;;
8187;SDS011;4135;49.184;9.722;2022-10-04T18:58:16;6.32;;;2.70;;
8187;SDS011;4135;49.184;9.722;2022-10-04T19:07:20;4.82;;;2.78;;
8187;SDS011;4135;49.184;9.722;2022-10-04T19:10:10;5.20;;;2.97;;
8187;SDS011;4135;49.184;9.722;2022-10-04T19:15:57;2.88;;;2.15;;
8187;SDS011;4135;49.184;9.722;2022-10-04T19:21:20;3.08;;;2.40;;
8187;SDS011;4135;49.184;9.722;2022-10-04T19:24:18;2.88;;;2.55;;
8187;SDS011;4135;49.184;9.722;2022-10-04T19:27:02;4.97;;;2.83;;
8187;SDS011;4135;49.184;9.722;2022-10-04T19:32:41;5.65;;;2.65;;
8187;SDS011;4135;49.184;9.722;2022-10-04T19:38:19;3.70;;;2.65;;
8187;SDS011;4135;49.184;9.722;2022-10-04T19:41:05;3.85;;;2.70;;
8187;SDS011;4135;49.184;9.722;2022-10-04T19:43:54;4.68;;;2.60;;
8187;SDS011;4135;49.184;9.722;2022-10-04T19:46:45;4.75;;;2.47;;
8187;SDS011;4135;49.184;9.722;2022-10-04T19:49:36;3.40;;;2.75;;
8187;SDS011;4135;49.184;9.722;2022-10-04T19:52:13;5.70;;;2.25;;
8187;SDS011;4135;49.184;9.722;2022-10-04T19:54:44;5.07;;;2.75;;
8187;SDS011;4135;49.184;9.722;2022-10-04T19:57:21;2.67;;;1.80;;
8187;SDS011;4135;49.184;9.722;2022-10-04T20:00:10;4.13;;;2.35;;
8187;SDS011;4135;49.184;9.722;2022-10-04T20:02:41;6.03;;;2.40;;
8187;SDS011;4135;49.184;9.722;2022-10-04T20:05:11;2.20;;;2.03;;
8187;SDS011;4135;49.184;9.722;2022-10-04T20:07:50;2.60;;;1.90;;
8187;SDS011;4135;49.184;9.722;2022-10-04T20:13:20;5.53;;;2.35;;
8187;SDS011;4135;49.184;9.722;2022-10-04T20:15:53;3.47;;;1.95;;
8187;SDS011;4135;49.184;9.722;2022-10-04T20:21:02;6.97;;;2.22;;
8187;SDS011;4135;49.184;9.722;2022-10-04T20:32:08;4.88;;;2.15;;
8187;SDS011;4135;49.184;9.722;2022-10-04T20:35:01;3.03;;;1.98;;
8187;SDS011;4135;49.184;9.722;2022-10-04T20:45:42;4.05;;;2.30;;
8187;SDS011;4135;49.184;9.722;2022-10-04T20:48:21;5.50;;;2.60;;
8187;SDS011;4135;49.184;9.722;2022-10-04T20:50:53;5.15;;;2.75;;
8187;SDS011;4135;49.184;9.722;2022-10-04T20:53:27;2.70;;;1.83;;
8187;SDS011;4135;49.184;9.722;2022-10-04T20:58:56;3.10;;;2.05;;
8187;SDS011;4135;49.184;9.722;2022-10-04T21:01:33;2.78;;;2.15;;
8187;SDS011;4135;49.184;9.722;2022-10-04T21:04:23;4.75;;;2.63;;
8187;SDS011;4135;49.184;9.722;2022-10-04T21:07:10;5.30;;;2.17;;
8187;SDS011;4135;49.184;9.722;2022-10-04T21:09:45;5.60;;;2.33;;
8187;SDS011;4135;49.184;9.722;2022-10-04T21:23:24;2.97;;;2.15;;
8187;SDS011;4135;49.184;9.722;2022-10-04T21:26:17;6.55;;;2.10;;
8187;SDS011;4135;49.184;9.722;2022-10-04T21:28:54;2.50;;;1.77;;
8187;SDS011;4135;49.184;9.722;2022-10-04T21:31:25;7.07;;;2.63;;
8187;SDS011;4135;49.184;9.722;2022-10-04T21:33:54;3.05;;;1.92;;
8187;SDS011;4135;49.184;9.722;2022-10-04T21:36:24;2.17;;;1.50;;
8187;SDS011;4135;49.184;9.722;2022-10-04T21:38:53;3.42;;;2.05;;
8187;SDS011;4135;49.184;9.722;2022-10-04T21:41:23;5.15;;;1.63;;
8187;SDS011;4135;49.184;9.722;2022-10-04T21:43:52;3.88;;;2.10;;
8187;SDS011;4135;49.184;9.722;2022-10-04T21:46:22;3.95;;;1.98;;
8187;SDS011;4135;49.184;9.722;2022-10-04T21:48:51;2.08;;;1.60;;
8187;SDS011;4135;49.184;9.722;2022-10-04T21:51:21;2.40;;;1.70;;
8187;SDS011;4135;49.184;9.722;2022-10-04T21:53:50;4.05;;;2.30;;
8187;SDS011;4135;49.184;9.722;2022-10-04T21:56:20;3.28;;;2.00;;
8187;SDS011;4135;49.184;9.722;2022-10-04T21:58:49;2.13;;;1.63;;
8187;SDS011;4135;49.184;9.722;2022-10-04T22:01:19;4.07;;;1.92;;
8187;SDS011;4135;49.184;9.722;2022-10-04T22:03:48;2.92;;;1.90;;
8187;SDS011;4135;49.184;9.722;2022-10-04T22:06:18;2.17;;;1.60;;
8187;SDS011;4135;49.184;9.722;2022-10-04T22:08:47;2.92;;;1.95;;
8187;SDS011;4135;49.184;9.722;2022-10-04T22:11:17;5.15;;;2.10;;
8187;SDS011;4135;49.184;9.722;2022-10-04T22:13:47;3.03;;;2.03;;
8187;SDS011;4135;49.184;9.722;2022-10-04T22:16:16;2.50;;;2.13;;
8187;SDS011;4135;49.184;9.722;2022-10-04T22:18:46;3.70;;;1.77;;
8187;SDS011;4135;49.184;9.722;2022-10-04T22:21:16;2.45;;;1.48;;
8187;SDS011;4135;49.184;9.722;2022-10-04T22:23:45;4.28;;;2.15;;
8187;SDS011;4135;49.184;9.722;2022-10-04T22:26:16;4.43;;;1.98;;
8187;SDS011;4135;49.184;9.722;2022-10-04T22:28:50;3.08;;;1.50;;
8187;SDS011;4135;49.184;9.722;2022-10-04T22:31:24;3.67;;;1.95;;
8187;SDS011;4135;49.184;9.722;2022-10-04T22:33:55;2.83;;;1.50;;
8187;SDS011;4135;49.184;9.722;2022-10-04T22:36:37;1.55;;;1.40;;
8187;SDS011;4135;49.184;9.722;2022-10-04T22:41:38;3.13;;;1.73;;
8187;SDS011;4135;49.184;9.722;2022-10-04T22:44:14;2.78;;;1.70;;
8187;SDS011;4135;49.184;9.722;2022-10-04T22:46:47;2.55;;;1.50;;
8187;SDS011;4135;49.184;9.722;2022-10-04T22:49:20;2.75;;;1.85;;
8187;SDS011;4135;49.184;9.722;2022-10-04T22:51:55;2.22;;;1.70;;
8187;SDS011;4135;49.184;9.722;2022-10-04T22:54:31;3.55;;;1.60;;
8187;SDS011;4135;49.184;9.722;2022-10-04T22:57:03;4.20;;;2.15;;
8187;SDS011;4135;49.184;9.722;2022-10-04T22:59:34;1.27;;;1.00;;
8187;SDS011;4135;49.184;9.722;2022-10-04T23:02:16;5.60;;;1.67;;
8187;SDS011;4135;49.184;9.722;2022-10-04T23:04:55;2.78;;;2.38;;
8187;SDS011;4135;49.184;9.722;2022-10-04T23:07:29;2.15;;;1.50;;
8187;SDS011;4135;49.184;9.722;2022-10-04T23:09:59;2.55;;;1.95;;
8187;SDS011;4135;49.184;9.722;2022-10-04T23:12:28;1.85;;;1.80;;
8187;SDS011;4135;49.184;9.722;2022-10-04T23:14:58;2.97;;;1.95;;
8187;SDS011;4135;49.184;9.722;2022-10-04T23:17:33;3.15;;;1.42;;
8187;SDS011;4135;49.184;9.722;2022-10-04T23:22:40;2.13;;;1.75;;
8187;SDS011;4135;49.184;9.722;2022-10-04T23:25:28;2.83;;;1.88;;
8187;SDS011;4135;49.184;9.722;2022-10-04T23:27:59;2.03;;;1.60;;
8187;SDS011;4135;49.184;9.722;2022-10-04T23:30:30;4.22;;;2.10;;
8187;SDS011;4135;49.184;9.722;2022-10-04T23:33:00;4.28;;;1.70;;
8187;SDS011;4135;49.184;9.722;2022-10-04T23:35:30;3.55;;;2.13;;
8187;SDS011;4135;49.184;9.722;2022-10-04T23:38:01;2.30;;;1.45;;
8187;SDS011;4135;49.184;9.722;2022-10-04T23:40:35;2.13;;;1.55;;
8187;SDS011;4135;49.184;9.722;2022-10-04T23:43:04;3.72;;;1.67;;
8187;SDS011;4135;49.184;9.722;2022-10-04T23:45:34;3.45;;;1.90;;
8187;SDS011;4135;49.184;9.722;2022-10-04T23:48:19;5.50;;;2.13;;
8187;SDS011;4135;49.184;9.722;2022-10-04T23:50:53;2.60;;;1.48;;
8187;SDS011;4135;49.184;9.722;2022-10-04T23:53:24;2.42;;;1.45;;
8187;SDS011;4135;49.184;9.722;2022-10-04T23:55:57;3.63;;;1.92;;
8187;SDS011;4135;49.184;9.722;2022-10-04T23:58:33;2.67;;;1.75;;
